Terminal Aerodrome Forecast
Issued by NWS

Home | Current Version | Previous Version | Text Only | Print | Product List | Glossary On
Versions: 1 2 3 4 5 6 7 8 9 10 11 12 13 14 15 16 17 18
000
FTUS46 KMTR 222300
TAFSNS
TAF
KSNS 222339Z 2300/2324 27008KT P6SM SCT250
     FM230800 VRB04KT P6SM BKN005
     FM231900 26004KT P6SM FEW008 SCT250
     FM232100 28012KT P6SM SCT250=

USA.gov is the U.S. government's official web portal to all federal, state and local government web resources and services.